KOLF

L M Clayton Airport

Wolf Point, Montana, USA
METAR KOLF 160053Z AUTO 25010KT 10SM CLR 03/M03 A2996 RMK AO2 SLP171 T00281028
Observed Flight Rules
Dec-16 @ 00:53 UTC (23 minutes ago) Visual Flight Rules
Wind Visibility Clouds
250° at 10 knots 10 miles
  • Clear skies
Temperatures Readings
Current 3°C / 37°F
Dewpoint -3°C / 27°F
Humidity 65%
Altimeter 29.96" Hg
Pressure 1017.1 hPa
Elevation 604
METAR KOLF 160053Z AUTO 25010KT 10SM CLR 03/M03 A2996 RMK AO2 SLP171 T00281028
Observed Flight Rules
Dec-16 @ 00:53 UTC
(23 minutes ago)
VFR
Wind Visibility
250° at 10 knots 10 miles
Clouds
  • Clear skies
Temperature Dewpoint
3°C / 37°F -3°C / 27°F
Humidity Altimeter Pressure
65% 29.96" Hg 1017.1 hPa